^^
Gobles Weather Station Historical Data
 
Daily Summary for May 22, 2024 Units:  English    Metric   Both
Daily Weekly Monthly Yearly
  Current: High: Low: Average:
Temperature: 47.8 °F 51.8 °F 47.7 °F 48.7 °F
Dew Point: 42.6 °F 48.2 °F 40.8 °F 43.1 °F
Humidity: 81.8% 87.8% 77% 81%
Wind Speed: 3mph 8.6mph 2.3mph 6.1mph
Wind Gust: 10.4mph 22mph - -
WindSouth - - South
Pressure: 29.87 in 29.87 in 29.84 in -
Precipitation: 0.00 in      
 
 
Tabular Data for May 22, 2024
Time Temperature Dew Point Pressure Wind Wind Speed Wind Gust Humidity Rainfall Rate (Hourly) solar
00:09 51.8 °F 48.2 °F 29.85 in SW 7.6 mph 21 mph 87.3% 0.00 in 0 W/m2
00:14 51.7 °F 48 °F 29.85 in SSW 5.3 mph 15 mph 87% 0.00 in 0 W/m2
00:19 51.5 °F 48.1 °F 29.85 in WSW 5 mph 15 mph 87.8% 0.00 in 0 W/m2
00:24 51.3 °F 47.9 °F 29.85 in SSW 4.3 mph 15 mph 87.7% 0.00 in 0 W/m2
00:29 50.9 °F 47 °F 29.85 in SW 6.9 mph 20 mph 86.3% 0.00 in 0 W/m2
00:34 50.4 °F 46 °F 29.85 in SSW 7.7 mph 22 mph 84.8% 0.00 in 0 W/m2
00:39 50.1 °F 45.7 °F 29.85 in SSW 6.2 mph 22 mph 84.5% 0.00 in 0 W/m2
00:44 50 °F 45.4 °F 29.86 in SSW 7 mph 20 mph 84% 0.00 in 0 W/m2
00:49 49.9 °F 45.3 °F 29.85 in SSW 7.2 mph 19.6 mph 84% 0.00 in 0 W/m2
00:54 49.8 °F 44.8 °F 29.86 in SSW 6.7 mph 20 mph 83.2% 0.00 in 0 W/m2
00:59 49.6 °F 44.6 °F 29.86 in SSW 7.5 mph 17.3 mph 82.9% 0.00 in 0 W/m2
01:04 49.5 °F 44.2 °F 29.85 in South 7.8 mph 21 mph 82% 0.00 in 0 W/m2
01:09 49.3 °F 44 °F 29.85 in South 6.7 mph 21 mph 82% 0.00 in 0 W/m2
01:14 49 °F 43.8 °F 29.85 in South 5.8 mph 16 mph 82% 0.00 in 0 W/m2
01:19 48.8 °F 43.6 °F 29.84 in SSW 7.6 mph 17.3 mph 82.1% 0.00 in 0 W/m2
01:24 48.7 °F 43.4 °F 29.85 in SSW 7.3 mph 19.6 mph 81.8% 0.00 in 0 W/m2
01:29 48.6 °F 43 °F 29.85 in South 6.3 mph 20 mph 81% 0.00 in 0 W/m2
01:34 48.5 °F 42.9 °F 29.85 in SSW 7.4 mph 20 mph 81% 0.00 in 0 W/m2
01:39 48.5 °F 42.8 °F 29.85 in SSW 7.4 mph 18 mph 80.6% 0.00 in 0 W/m2
01:44 48.5 °F 42.6 °F 29.85 in SSW 7 mph 17 mph 80% 0.00 in 0 W/m2
01:49 48.4 °F 42.3 °F 29.85 in South 8.6 mph 20 mph 79.3% 0.00 in 0 W/m2
01:54 48.3 °F 42.1 °F 29.85 in SSE 8.3 mph 20 mph 79% 0.00 in 0 W/m2
01:59 48.2 °F 41.7 °F 29.85 in South 7 mph 18.4 mph 78% 0.00 in 0 W/m2
02:04 48.1 °F 41.7 °F 29.86 in South 6 mph 15 mph 78.3% 0.00 in 0 W/m2
02:09 48 °F 41.5 °F 29.86 in SSE 6.5 mph 14 mph 78% 0.00 in 0 W/m2
02:14 48 °F 41.4 °F 29.85 in SSE 6.4 mph 13 mph 77.7% 0.00 in 0 W/m2
02:19 48 °F 41.4 °F 29.85 in South 7.2 mph 20 mph 77.9% 0.00 in 0 W/m2
02:24 47.9 °F 41.2 °F 29.85 in SSE 5.7 mph 20 mph 77.5% 0.00 in 0 W/m2
02:29 47.8 °F 41.1 °F 29.85 in SSE 7.9 mph 18.4 mph 77.5% 0.00 in 0 W/m2
02:34 47.8 °F 40.9 °F 29.85 in SSE 7.1 mph 16 mph 77% 0.00 in 0 W/m2
02:39 47.8 °F 40.9 °F 29.85 in South 7.1 mph 17.3 mph 77% 0.00 in 0 W/m2
02:44 47.7 °F 40.8 °F 29.85 in SSE 6.8 mph 17 mph 77% 0.00 in 0 W/m2
02:49 47.7 °F 41 °F 29.85 in South 7.1 mph 15 mph 77.4% 0.00 in 0 W/m2
02:54 47.8 °F 41.3 °F 29.85 in South 6.7 mph 15 mph 78% 0.00 in 0 W/m2
02:59 47.8 °F 41.3 °F 29.86 in SSE 6.7 mph 15 mph 78% 0.00 in 0 W/m2
03:04 47.8 °F 41.5 °F 29.86 in SSE 6.6 mph 15 mph 78.5% 0.00 in 0 W/m2
03:09 47.9 °F 41.7 °F 29.86 in SSE 5.7 mph 14 mph 79% 0.00 in 0 W/m2
03:14 48 °F 41.8 °F 29.86 in SSE 5.8 mph 13 mph 79% 0.00 in 0 W/m2
03:19 48.1 °F 41.9 °F 29.86 in SSE 6.9 mph 15 mph 79% 0.00 in 0 W/m2
03:24 48.1 °F 41.9 °F 29.86 in SSE 5.4 mph 15 mph 79% 0.00 in 0 W/m2
03:29 48 °F 41.9 °F 29.86 in SSE 4.4 mph 13 mph 79.2% 0.00 in 0 W/m2
03:34 48 °F 42 °F 29.87 in South 4.7 mph 12 mph 79.5% 0.00 in 0 W/m2
03:39 48 °F 42.1 °F 29.87 in South 3.9 mph 12 mph 80% 0.00 in 0 W/m2
03:44 47.9 °F 42 °F 29.87 in South 2.7 mph 10 mph 80% 0.00 in 0 W/m2
03:49 47.9 °F 42.1 °F 29.87 in SSE 3.8 mph 8.1 mph 80.3% 0.00 in 0 W/m2
03:54 47.9 °F 42.2 °F 29.87 in South 3.4 mph 9.2 mph 80.8% 0.00 in 0 W/m2
03:59 47.8 °F 42.3 °F 29.87 in SSE 4 mph 10.4 mph 81% 0.00 in 0 W/m2
04:04 47.9 °F 42.3 °F 29.87 in SSW 3.4 mph 11.5 mph 81% 0.00 in 0 W/m2
04:09 47.9 °F 42.3 °F 29.87 in SSW 2.3 mph 12 mph 81% 0.00 in 0 W/m2
04:14 47.8 °F 42.6 °F 29.87 in South 3 mph 10.4 mph 81.8% 0.00 in 0 W/m2
Gobles Weather Renton WA
Compliments of Weather Underground - 2 mb